Time;durP1;ratioP1;P1;durP2;ratioP2;P2;SDS_P1;SDS_P2;PMS_P1;PMS_P2;Temp;Humidity;BMP_temperature;BMP_pressure;BME280_temperature;BME280_humidity;BME280_pressure;Samples;Min_cycle;Max_cycle;Signal;HPM_P1;HPM_P2
2022/09/23 00:01:09;;;;;;;7.47;5.40;;;;;;;9.42;65.59;100197.78;4361100;32;35027;-76
2022/09/23 00:03:40;;;;;;;7.87;6.28;;;;;;;9.86;63.64;100200.25;4358894;32;34289;-83
2022/09/23 00:06:13;;;;;;;8.52;6.70;;;;;;;9.90;62.75;100204.13;4361408;32;34517;-78
2022/09/23 00:08:41;;;;;;;10.73;7.35;;;;;;;9.64;64.18;100206.19;4360177;32;34844;-78
2022/09/23 00:11:19;;;;;;;9.35;7.05;;;;;;;9.54;64.05;100208.62;4361342;32;35125;-76
2022/09/23 00:13:49;;;;;;;9.90;7.30;;;;;;;9.88;62.63;100205.44;4361049;32;34357;-76
2022/09/23 00:16:20;;;;;;;9.52;7.10;;;;;;;9.73;62.55;100195.84;4361097;32;34688;-76
2022/09/23 00:18:49;;;;;;;10.27;6.65;;;;;;;9.61;63.19;100195.84;4361206;32;34864;-76
2022/09/23 00:21:18;;;;;;;8.52;6.35;;;;;;;9.71;63.15;100197.97;4360942;32;35533;-75
2022/09/23 00:23:46;;;;;;;8.60;5.65;;;;;;;9.15;65.00;100193.78;4344559;33;34855;-77
2022/09/23 00:26:15;;;;;;;8.25;6.05;;;;;;;9.34;64.57;100189.16;4346440;33;33506;-76
2022/09/23 00:28:43;;;;;;;7.35;5.70;;;;;;;9.27;64.50;100188.41;4346611;33;34106;-75
2022/09/23 00:31:14;;;;;;;8.18;5.85;;;;;;;9.10;65.58;100185.53;4346127;33;34952;-76
2022/09/23 00:33:41;;;;;;;7.43;5.68;;;;;;;9.45;64.27;100185.66;4346035;33;34440;-76
2022/09/23 00:36:14;;;;;;;8.38;5.95;;;;;;;9.42;64.32;100176.09;4346409;33;33766;-78
2022/09/23 00:38:43;;;;;;;8.18;5.80;;;;;;;9.26;64.94;100178.63;4345457;33;34389;-77
2022/09/23 00:41:16;;;;;;;12.25;5.72;;;;;;;9.03;66.62;100180.19;4333361;33;35061;-77
2022/09/23 00:43:50;;;;;;;8.77;5.70;;;;;;;9.10;66.63;100172.81;4346069;33;34936;-76
2022/09/23 00:46:23;;;;;;;8.73;5.87;;;;;;;9.46;64.67;100165.66;4332424;33;34151;-77
2022/09/23 00:48:59;;;;;;;8.02;5.53;;;;;;;9.12;66.18;100168.00;4346116;33;33757;-74
2022/09/23 00:51:33;;;;;;;9.63;6.00;;;;;;;8.61;67.99;100174.66;4332557;33;33807;-77
2022/09/23 00:54:01;;;;;;;13.62;7.97;;;;;;;8.85;67.57;100162.06;4345224;33;34190;-77
2022/09/23 00:56:29;;;;;;;17.83;10.25;;;;;;;9.13;66.34;100166.09;4332434;33;33681;-76
2022/09/23 00:58:57;;;;;;;19.02;10.50;;;;;;;9.11;65.98;100171.72;4332489;33;33851;-77
2022/09/23 01:01:24;;;;;;;20.12;11.18;;;;;;;9.26;64.52;100168.63;4332197;33;34070;-77
2022/09/23 01:03:53;;;;;;;17.92;10.50;;;;;;;9.32;64.52;100169.59;4345483;33;34892;-78
2022/09/23 01:06:20;;;;;;;16.17;9.98;;;;;;;9.08;64.80;100171.38;4344608;33;34496;-78
2022/09/23 01:08:48;;;;;;;22.50;13.20;;;;;;;9.00;66.00;100169.81;4344058;33;34720;-82
2022/09/23 01:11:53;;;;;;;28.45;15.70;;;;;;;9.12;65.73;100170.69;4345019;33;34218;-77
2022/09/23 01:14:58;;;;;;;25.03;15.60;;;;;;;9.19;64.86;100171.41;4346306;33;34854;-77
2022/09/23 01:17:38;;;;;;;29.80;17.05;;;;;;;8.59;67.00;100166.75;4347535;33;34489;-76
2022/09/23 01:20:30;;;;;;;30.55;17.65;;;;;;;8.58;67.57;100172.41;4347736;33;34679;-76
2022/09/23 01:23:51;;;;;;;29.63;17.67;;;;;;;8.91;66.29;100168.47;4353443;32;35206;-78
2022/09/23 01:26:37;;;;;;;23.38;14.93;;;;;;;9.07;64.84;100172.41;4287148;33;35034;-76
2022/09/23 01:29:24;;;;;;;23.17;14.00;;;;;;;9.18;64.50;100168.97;4348798;32;33896;-77
2022/09/23 01:32:02;;;;;;;18.20;11.40;;;;;;;8.89;65.19;100173.28;4347697;33;34706;-78
2022/09/23 01:34:33;;;;;;;18.50;10.77;;;;;;;8.68;66.36;100177.28;4333979;33;34343;-76
2022/09/23 01:37:25;;;;;;;18.75;10.65;;;;;;;8.52;67.40;100176.00;4347848;33;34321;-76
2022/09/23 01:40:03;;;;;;;17.67;10.38;;;;;;;8.97;65.42;100167.56;4347771;33;33500;-77
2022/09/23 01:42:38;;;;;;;17.48;10.25;;;;;;;8.84;65.39;100173.97;4354645;32;33784;-76
2022/09/23 01:45:31;;;;;;;15.85;9.35;;;;;;;8.47;66.91;100173.97;4347309;32;34772;-79
2022/09/23 01:48:35;;;;;;;14.20;9.25;;;;;;;8.67;66.99;100162.09;4348235;32;34364;-76
2022/09/23 01:51:11;;;;;;;12.70;8.15;;;;;;;8.72;66.87;100168.47;4326161;32;33720;-75
2022/09/23 01:53:49;;;;;;;13.45;8.05;;;;;;;8.99;64.96;100166.28;4348976;32;33818;-76
2022/09/23 01:56:23;;;;;;;12.65;8.82;;;;;;;8.54;66.54;100177.44;4338388;33;34152;-77
2022/09/23 01:58:54;;;;;;;;;;;;;;;8.93;64.82;100171.78;4334862;33;34285;-76
2022/09/23 02:01:36;;;;;;;13.13;8.32;;;;;;;8.84;65.13;100171.25;4347604;33;33766;-78
2022/09/23 02:04:24;;;;;;;12.50;7.60;;;;;;;8.99;64.38;100166.28;4333684;33;34750;-77
2022/09/23 02:06:55;;;;;;;9.93;6.87;;;;;;;8.70;65.22;100165.16;4334116;33;33930;-77
2022/09/23 02:09:24;;;;;;;11.88;7.30;;;;;;;8.51;66.36;100169.78;4338655;32;33941;-76
2022/09/23 02:11:56;;;;;;;12.20;7.30;;;;;;;8.76;65.07;100169.69;4348956;32;34558;-75
2022/09/23 02:14:35;;;;;;;9.60;6.75;;;;;;;8.04;67.67;100169.37;4342428;33;34020;-82
2022/09/23 02:17:08;;;;;;;11.02;7.10;;;;;;;7.99;68.18;100161.09;4347767;33;34159;-76
2022/09/23 02:19:43;;;;;;;10.15;6.78;;;;;;;8.09;68.47;100161.41;4333798;33;34322;-76
2022/09/23 02:22:15;;;;;;;11.32;7.15;;;;;;;7.77;69.29;100164.19;4348512;32;33511;-76
2022/09/23 02:24:43;;;;;;;9.68;6.37;;;;;;;7.93;68.66;100176.34;4348736;32;34079;-76
2022/09/23 02:27:19;;;;;;;10.15;7.18;;;;;;;8.63;65.84;100167.94;4361861;32;34285;-77
2022/09/23 02:30:10;;;;;;;11.55;6.57;;;;;;;8.48;65.92;100169.37;4347708;32;34309;-78
2022/09/23 02:33:04;;;;;;;9.90;6.68;;;;;;;8.75;64.58;100162.63;4362315;32;33367;-76
2022/09/23 02:35:36;;;;;;;7.87;5.93;;;;;;;8.68;64.64;100164.56;4348656;32;33784;-76
2022/09/23 02:38:16;;;;;;;8.20;5.82;;;;;;;8.65;64.81;100158.81;4349234;32;34297;-76
2022/09/23 02:40:51;;;;;;;8.18;5.60;;;;;;;8.48;66.24;100170.22;4348585;32;34290;-76
2022/09/23 02:43:34;;;;;;;9.27;5.90;;;;;;;8.63;65.43;100167.13;4348386;32;34517;-77
2022/09/23 02:46:03;;;;;;;7.82;5.45;;;;;;;8.57;65.51;100157.22;4349277;32;33976;-76
2022/09/23 02:48:40;;;;;;;9.43;6.22;;;;;;;8.08;66.82;100161.63;4348539;32;34297;-76
2022/09/23 02:51:08;;;;;;;9.40;6.10;;;;;;;7.99;68.09;100161.94;4348599;32;33912;-76
2022/09/23 02:53:36;;;;;;;8.63;6.10;;;;;;;8.16;67.25;100159.50;4362324;32;33673;-76
2022/09/23 02:56:15;;;;;;;9.05;6.18;;;;;;;8.50;65.97;100164.59;4362250;32;34494;-80
2022/09/23 02:58:42;;;;;;;8.32;5.68;;;;;;;8.43;66.34;100164.66;4347044;33;34975;-76
2022/09/23 03:01:17;;;;;;;7.65;5.78;;;;;;;8.30;66.91;100162.06;4347297;33;34318;-76
2022/09/23 03:04:13;;;;;;;8.60;5.90;;;;;;;8.26;68.00;100160.84;4346974;33;33870;-76
2022/09/23 03:06:52;;;;;;;7.95;5.55;;;;;;;7.81;69.51;100164.56;4347251;33;34630;-76
2022/09/23 03:09:30;;;;;;;8.57;5.97;;;;;;;8.00;69.41;100157.34;4346180;32;35077;-80
2022/09/23 03:12:14;;;;;;;8.13;5.72;;;;;;;8.15;68.71;100165.13;4348054;32;34927;-76
2022/09/23 03:15:04;;;;;;;9.80;5.80;;;;;;;8.47;66.70;100167.75;4348697;32;33656;-80
2022/09/23 03:17:47;;;;;;;9.02;6.07;;;;;;;8.45;66.63;100167.97;4348153;32;33883;-77
2022/09/23 03:20:27;;;;;;;9.00;5.65;;;;;;;8.02;67.66;100160.66;4361894;32;35092;-76
2022/09/23 03:22:59;;;;;;;8.35;5.95;;;;;;;8.10;67.31;100162.25;4348102;32;34091;-76
2022/09/23 03:25:30;;;;;;;9.10;6.55;;;;;;;8.04;67.80;100168.56;4348618;32;34578;-76
2022/09/23 03:27:59;;;;;;;10.52;7.05;;;;;;;8.19;66.76;100163.63;4348604;32;34614;-76
2022/09/23 03:30:28;;;;;;;11.50;7.37;;;;;;;8.35;65.89;100163.03;4361038;32;34974;-77
2022/09/23 03:32:56;;;;;;;13.95;8.68;;;;;;;8.35;65.42;100164.91;4348145;32;34206;-76
2022/09/23 03:35:26;;;;;;;14.40;8.27;;;;;;;8.07;66.94;100165.41;4348297;32;33529;-76
2022/09/23 03:38:23;;;;;;;14.82;8.85;;;;;;;7.84;67.60;100171.41;4348326;32;34732;-78
2022/09/23 03:40:53;;;;;;;15.57;9.55;;;;;;;8.15;66.64;100168.66;4345463;32;34535;-78
2022/09/23 03:43:21;;;;;;;17.58;10.68;;;;;;;8.17;67.53;100158.44;4348114;32;33975;-77
2022/09/23 03:45:53;;;;;;;20.10;11.55;;;;;;;7.73;69.19;100162.16;4348353;32;34590;-76
2022/09/23 03:48:21;;;;;;;17.87;11.68;;;;;;;7.63;69.48;100164.53;4361610;32;33804;-77
2022/09/23 03:50:48;;;;;;;15.85;9.75;;;;;;;7.76;69.37;100164.41;4361695;32;34320;-76
2022/09/23 03:53:19;;;;;;;17.37;11.02;;;;;;;7.62;69.80;100166.37;4361646;32;34206;-76
2022/09/23 03:55:47;;;;;;;14.02;9.30;;;;;;;8.18;67.85;100175.47;4361617;32;33645;-77
2022/09/23 03:58:14;;;;;;;12.00;8.27;;;;;;;8.29;66.34;100169.31;4361937;32;33894;-76
2022/09/23 04:00:43;;;;;;;13.45;8.57;;;;;;;8.02;66.22;100166.88;4361271;32;34116;-76
2022/09/23 04:03:11;;;;;;;16.55;10.85;;;;;;;8.04;65.98;100171.25;4360665;32;34230;-79
2022/09/23 04:05:39;;;;;;;19.27;12.13;;;;;;;7.98;66.06;100162.97;4361607;32;33731;-77
2022/09/23 04:08:06;;;;;;;19.02;11.88;;;;;;;7.95;65.87;100171.53;4361399;32;33935;-76
2022/09/23 04:10:34;;;;;;;18.20;11.70;;;;;;;7.99;66.07;100170.03;4359499;32;34073;-77
2022/09/23 04:13:01;;;;;;;17.12;10.80;;;;;;;8.08;66.53;100164.34;4355733;32;158373;-75
2022/09/23 04:15:28;;;;;;;15.32;10.10;;;;;;;7.60;67.34;100171.16;4360598;32;34415;-79
2022/09/23 04:17:56;;;;;;;14.57;10.13;;;;;;;7.92;66.34;100169.25;4361365;32;33855;-77
2022/09/23 04:20:24;;;;;;;14.93;9.50;;;;;;;7.69;67.37;100174.44;4361147;32;34189;-76
2022/09/23 04:22:52;;;;;;;15.88;10.02;;;;;;;7.89;67.02;100175.13;4361054;32;34231;-75
2022/09/23 04:25:20;;;;;;;14.57;10.00;;;;;;;8.15;66.49;100167.81;4360062;32;33716;-76
2022/09/23 04:27:47;;;;;;;17.05;10.85;;;;;;;8.19;65.75;100171.75;4359449;32;34289;-77
2022/09/23 04:30:14;;;;;;;14.87;10.07;;;;;;;8.20;65.71;100173.38;4349007;32;34073;-76
2022/09/23 04:32:42;;;;;;;15.95;10.35;;;;;;;8.09;66.43;100169.53;4346044;33;34175;-76
2022/09/23 04:35:09;;;;;;;17.65;10.50;;;;;;;8.04;67.16;100173.97;4345791;32;34574;-74
2022/09/23 04:37:37;;;;;;;16.05;10.43;;;;;;;8.01;67.71;100175.22;4346007;33;33339;-77
2022/09/23 04:40:05;;;;;;;14.65;9.48;;;;;;;8.02;68.00;100177.69;4345716;33;33993;-76
2022/09/23 04:42:32;;;;;;;17.23;10.57;;;;;;;8.19;67.66;100174.44;4345790;32;34997;-76
2022/09/23 04:45:00;;;;;;;16.83;10.43;;;;;;;8.29;67.09;100182.03;4345848;33;34377;-76
2022/09/23 04:47:30;;;;;;;15.20;9.55;;;;;;;8.20;67.50;100185.00;4345956;33;33985;-77
2022/09/23 04:49:58;;;;;;;14.40;9.32;;;;;;;8.20;67.89;100186.88;4360985;32;32631;-77
2022/09/23 04:52:26;;;;;;;16.17;9.30;;;;;;;8.30;67.29;100187.22;4362790;32;35072;-78
2022/09/23 04:54:53;;;;;;;17.00;10.00;;;;;;;8.33;67.03;100191.34;4362766;32;34544;-75
2022/09/23 04:57:22;;;;;;;15.25;9.05;;;;;;;8.14;67.58;100185.06;4362948;32;34100;-77
2022/09/23 04:59:49;;;;;;;15.40;8.73;;;;;;;8.17;67.58;100180.06;4362690;32;34863;-76
2022/09/23 05:02:17;;;;;;;15.48;9.52;;;;;;;8.11;68.54;100186.34;4352397;32;34332;-75
2022/09/23 05:04:44;;;;;;;17.95;9.70;;;;;;;8.10;69.21;100194.66;4347605;33;34397;-77
2022/09/23 05:07:12;;;;;;;16.67;9.70;;;;;;;8.06;70.04;100201.59;4347855;33;33905;-77
2022/09/23 05:09:40;;;;;;;19.25;10.38;;;;;;;8.17;69.62;100198.97;4348155;33;34014;-77
2022/09/23 05:12:07;;;;;;;21.65;10.85;;;;;;;8.47;69.03;100198.31;4354680;32;34001;-77
2022/09/23 05:14:35;;;;;;;17.62;10.23;;;;;;;8.43;68.74;100201.69;4362466;32;34271;-76
2022/09/23 05:17:02;;;;;;;17.52;9.77;;;;;;;8.35;69.47;100206.28;4360478;32;34662;-76
2022/09/23 05:19:30;;;;;;;19.90;11.30;;;;;;;8.15;70.26;100208.38;4362650;32;34207;-78
2022/09/23 05:21:57;;;;;;;19.55;10.68;;;;;;;8.47;69.46;100208.31;4361733;32;34244;-77
2022/09/23 05:24:25;;;;;;;17.25;11.10;;;;;;;8.18;70.28;100214.13;4361942;32;34371;-76
2022/09/23 05:26:53;;;;;;;18.05;10.73;;;;;;;8.65;68.28;100208.31;4363126;32;34097;-76
2022/09/23 05:29:20;;;;;;;19.67;11.15;;;;;;;8.06;70.44;100212.41;4362061;32;35161;-75
2022/09/23 05:31:48;;;;;;;19.45;11.02;;;;;;;8.42;69.80;100208.94;4362426;32;34923;-76
2022/09/23 05:34:17;;;;;;;17.25;10.60;;;;;;;8.16;71.95;100218.97;4362461;32;34520;-77
2022/09/23 05:36:44;;;;;;;13.48;9.07;;;;;;;8.78;70.46;100216.28;4362456;32;34519;-77
2022/09/23 05:39:12;;;;;;;18.90;10.35;;;;;;;8.51;70.35;100217.59;4362631;32;35184;-76
2022/09/23 05:41:41;;;;;;;16.25;10.38;;;;;;;9.10;69.04;100221.53;4362565;32;33851;-77
2022/09/23 05:44:09;;;;;;;14.60;9.30;;;;;;;9.31;69.48;100224.78;4361820;32;33483;-76
2022/09/23 05:46:36;;;;;;;14.90;9.07;;;;;;;10.07;67.80;100215.94;4362386;32;34762;-76
2022/09/23 05:49:04;;;;;;;15.00;10.10;;;;;;;10.04;67.81;100215.56;4362175;32;35075;-78
2022/09/23 05:51:33;;;;;;;17.37;9.20;;;;;;;10.87;64.29;100214.53;4362281;32;34061;-76
2022/09/23 05:54:02;;;;;;;13.45;9.45;;;;;;;10.64;66.27;100217.28;4362439;32;33735;-76
2022/09/23 05:56:31;;;;;;;14.93;9.88;;;;;;;10.95;64.79;100213.34;4345536;32;33812;-76
2022/09/23 05:59:00;;;;;;;12.80;8.88;;;;;;;10.39;67.96;100217.53;4362050;32;34302;-77
2022/09/23 06:01:33;;;;;;;12.75;8.07;;;;;;;11.38;64.83;100211.16;4347612;32;35047;-78
2022/09/23 06:04:03;;;;;;;13.55;7.65;;;;;;;12.07;61.20;100205.63;4361891;32;34543;-75
2022/09/23 06:06:33;;;;;;;10.88;7.60;;;;;;;10.93;66.99;100212.75;4362144;32;34552;-77
2022/09/23 06:09:02;;;;;;;11.65;8.13;;;;;;;11.79;64.05;100214.63;4361656;32;33954;-76
2022/09/23 06:11:31;;;;;;;9.77;6.65;;;;;;;11.38;65.28;100213.87;4360705;32;34060;-76
2022/09/23 06:13:59;;;;;;;9.48;6.72;;;;;;;11.30;66.95;100215.12;4360860;32;33464;-75
2022/09/23 06:16:30;;;;;;;6.97;5.03;;;;;;;12.47;62.29;100216.31;4348200;32;33806;-76
2022/09/23 06:18:59;;;;;;;7.45;5.12;;;;;;;12.02;64.29;100214.53;4360245;32;35103;-75
2022/09/23 06:21:33;;;;;;;8.85;4.95;;;;;;;12.62;62.53;100212.16;4361321;32;34135;-75
2022/09/23 06:24:01;;;;;;;8.93;5.53;;;;;;;12.14;64.68;100217.19;4361785;32;34068;-77
2022/09/23 06:26:32;;;;;;;8.73;5.68;;;;;;;12.26;62.14;100219.78;4361753;32;34782;-81
2022/09/23 06:29:03;;;;;;;8.38;5.50;;;;;;;12.58;63.46;100219.19;4362083;32;34351;-79
2022/09/23 06:31:31;;;;;;;8.73;5.80;;;;;;;12.54;63.78;100218.03;4361067;32;34161;-77
2022/09/23 06:33:59;;;;;;;9.48;5.75;;;;;;;12.70;62.39;100215.28;4360895;32;34483;-71
2022/09/23 06:36:42;;;;;;;9.80;5.75;;;;;;;13.22;61.80;100213.22;4363116;32;34100;-75
2022/09/23 06:39:14;;;;;;;7.45;5.43;;;;;;;13.67;58.66;100218.34;4361140;32;34154;-75
2022/09/23 06:41:43;;;;;;;9.43;6.03;;;;;;;13.26;59.49;100227.94;4348257;32;34129;-76
2022/09/23 06:44:14;;;;;;;8.20;6.00;;;;;;;13.46;60.80;100219.22;4360193;32;34398;-76
2022/09/23 06:46:42;;;;;;;10.50;7.05;;;;;;;13.04;60.78;100227.97;4362929;32;34880;-79
2022/09/23 06:49:11;;;;;;;9.65;6.37;;;;;;;12.92;61.46;100220.75;4362948;32;35163;-77
2022/09/23 06:51:39;;;;;;;9.45;6.70;;;;;;;13.38;60.26;100228.66;4352062;32;34317;-80
2022/09/23 06:54:07;;;;;;;11.02;6.97;;;;;;;13.22;62.05;100222.19;4362697;32;33614;-78
2022/09/23 06:56:34;;;;;;;11.07;6.68;;;;;;;13.53;60.90;100225.28;4362931;32;33878;-78
2022/09/23 06:59:07;;;;;;;11.32;6.97;;;;;;;13.72;60.68;100226.56;4362381;32;35123;-77
2022/09/23 07:01:35;;;;;;;10.45;7.18;;;;;;;13.82;61.03;100225.00;4349653;32;34291;-77
2022/09/23 07:04:03;;;;;;;9.20;6.68;;;;;;;13.87;60.34;100219.63;4349338;32;34298;-78
2022/09/23 07:06:30;;;;;;;9.77;6.15;;;;;;;14.10;58.16;100222.00;4363011;32;34032;-78
2022/09/23 07:08:59;;;;;;;8.82;5.72;;;;;;;14.50;57.22;100217.09;4362623;32;34199;-77
2022/09/23 07:11:27;;;;;;;9.27;6.30;;;;;;;13.94;57.48;100228.41;4362446;32;34689;-76
2022/09/23 07:13:54;;;;;;;8.45;5.85;;;;;;;14.13;59.04;100224.22;4349092;32;34469;-78
2022/09/23 07:16:22;;;;;;;8.40;5.43;;;;;;;14.24;60.53;100222.38;4344757;32;33702;-77
2022/09/23 07:18:51;;;;;;;7.12;5.05;;;;;;;14.05;59.03;100218.41;4361065;32;33880;-78
2022/09/23 07:21:18;;;;;;;6.87;4.78;;;;;;;13.77;60.74;100228.53;4359241;32;34293;-76
2022/09/23 07:23:48;;;;;;;6.15;4.90;;;;;;;14.77;56.60;100226.03;4341564;32;34502;-76
2022/09/23 07:26:18;;;;;;;7.68;5.35;;;;;;;14.74;57.22;100234.75;4348058;32;34080;-74
2022/09/23 07:28:46;;;;;;;7.03;4.75;;;;;;;15.27;55.93;100233.87;4344546;32;34278;-81
2022/09/23 07:31:16;;;;;;;5.80;4.00;;;;;;;14.89;55.89;100236.75;4342408;32;34809;-86
2022/09/23 07:33:56;;;;;;;9.75;4.93;;;;;;;14.48;55.69;100238.38;4331562;33;34548;-76
2022/09/23 07:36:26;;;;;;;7.05;4.03;;;;;;;14.68;57.23;100245.91;4359769;32;33869;-74
2022/09/23 07:39:01;;;;;;;7.20;5.40;;;;;;;14.79;55.81;100236.69;4352789;32;34310;-73
2022/09/23 07:41:30;;;;;;;6.28;4.65;;;;;;;14.77;55.87;100239.69;4341654;32;34816;-73
2022/09/23 07:43:59;;;;;;;8.32;4.62;;;;;;;14.91;56.44;100239.22;4327272;33;33830;-80
2022/09/23 07:46:31;;;;;;;7.70;5.43;;;;;;;14.90;56.58;100240.28;4345599;33;33809;-75
2022/09/23 07:49:00;;;;;;;9.23;5.03;;;;;;;14.66;57.13;100237.16;4353441;32;35307;-77
2022/09/23 07:51:31;;;;;;;6.70;4.90;;;;;;;14.97;55.29;100236.25;4352793;32;34962;-74
2022/09/23 07:54:08;;;;;;;9.15;5.20;;;;;;;14.64;56.09;100233.87;4345905;32;32410;-74
2022/09/23 07:56:38;;;;;;;5.85;4.68;;;;;;;15.21;54.08;100233.06;4329652;33;34098;-87
2022/09/23 07:59:10;;;;;;;6.30;5.00;;;;;;;15.21;53.93;100234.97;4340979;33;34922;-79
2022/09/23 08:01:40;;;;;;;6.05;4.43;;;;;;;14.74;56.68;100232.00;4354491;32;34299;-73
2022/09/23 08:04:16;;;;;;;6.40;4.87;;;;;;;14.26;57.12;100233.87;4337561;33;33738;-75
2022/09/23 08:06:49;;;;;;;6.65;4.32;;;;;;;14.08;57.67;100236.97;4324418;33;32587;-76
2022/09/23 08:09:19;;;;;;;5.15;3.87;;;;;;;14.64;58.14;100239.31;4341375;32;34083;-80
2022/09/23 08:11:46;;;;;;;5.45;4.05;;;;;;;14.29;60.58;100235.25;4345497;33;34039;-77
2022/09/23 08:14:16;;;;;;;6.97;4.30;;;;;;;14.38;59.55;100233.66;4359097;32;33448;-75
2022/09/23 08:16:45;;;;;;;5.10;3.72;;;;;;;14.87;57.20;100235.38;4345404;33;34020;-74
2022/09/23 08:19:13;;;;;;;5.97;3.78;;;;;;;15.42;54.83;100238.59;4356143;32;34887;-77
2022/09/23 08:21:42;;;;;;;7.70;3.65;;;;;;;15.39;53.78;100237.22;4351191;32;34411;-73
2022/09/23 08:24:15;;;;;;;7.00;4.65;;;;;;;15.35;54.39;100234.19;4359431;32;34502;-74
2022/09/23 08:26:44;;;;;;;8.35;5.25;;;;;;;14.79;56.32;100230.41;4353056;32;34710;-79
2022/09/23 08:29:13;;;;;;;7.53;4.85;;;;;;;15.20;54.23;100231.41;4355769;32;34258;-74
2022/09/23 08:31:41;;;;;;;8.13;5.30;;;;;;;15.78;54.92;100231.31;4348258;33;33608;-74
2022/09/23 08:34:09;;;;;;;8.73;6.03;;;;;;;15.30;55.31;100227.91;4345087;32;33275;-77
2022/09/23 08:36:38;;;;;;;7.45;5.57;;;;;;;15.58;53.27;100234.81;4346361;33;34718;-74
2022/09/23 08:39:05;;;;;;;8.25;5.68;;;;;;;15.47;54.11;100216.75;4342564;33;34998;-75
2022/09/23 08:41:49;;;;;;;7.78;5.60;;;;;;;15.34;54.45;100221.62;4334074;33;34356;-77
2022/09/23 08:44:42;;;;;;;10.32;5.68;;;;;;;15.69;55.28;100219.25;4335477;33;33574;-75
2022/09/23 08:47:18;;;;;;;7.95;5.20;;;;;;;15.62;53.20;100222.25;4355390;32;34059;-75
2022/09/23 08:49:59;;;;;;;7.45;5.50;;;;;;;15.78;55.56;100229.41;4339193;33;34963;-78
2022/09/23 08:52:34;;;;;;;9.70;5.68;;;;;;;15.96;52.85;100229.97;4334095;33;34927;-75
2022/09/23 08:55:03;;;;;;;6.87;5.43;;;;;;;15.10;53.90;100234.13;4345648;32;33146;-75
2022/09/23 08:57:33;;;;;;;9.27;5.75;;;;;;;15.06;55.62;100230.28;4320685;33;33460;-75
2022/09/23 09:00:01;;;;;;;6.85;4.90;;;;;;;14.89;55.17;100225.81;4346670;32;35043;-74
2022/09/23 09:02:29;;;;;;;8.05;5.82;;;;;;;15.45;54.49;100221.66;4337511;32;34998;-76
2022/09/23 09:05:02;;;;;;;7.15;5.30;;;;;;;15.68;53.79;100226.63;4341987;33;34507;-75
2022/09/23 09:07:33;;;;;;;8.25;5.82;;;;;;;15.66;52.73;100226.09;4345887;33;33675;-76
2022/09/23 09:10:25;;;;;;;7.85;5.12;;;;;;;15.27;53.62;100229.25;4346094;32;35061;-75
2022/09/23 09:13:00;;;;;;;9.18;5.55;;;;;;;16.01;53.52;100227.25;4334570;33;34094;-75
2022/09/23 09:15:28;;;;;;;10.32;5.20;;;;;;;15.78;53.34;100225.84;4335724;33;33549;-71
2022/09/23 09:18:13;;;;;;;7.03;5.32;;;;;;;15.91;53.65;100221.75;4328488;33;34883;-72
2022/09/23 09:21:26;;;;;;;7.90;5.65;;;;;;;15.23;56.02;100225.41;4337822;33;35128;-74
2022/09/23 09:23:56;;;;;;;6.72;4.75;;;;;;;15.65;53.80;100218.94;4307664;33;33886;-77
2022/09/23 09:26:32;;;;;;;8.88;5.85;;;;;;;16.25;53.25;100223.97;4282492;33;34275;-78
2022/09/23 09:29:04;;;;;;;8.27;5.97;;;;;;;15.82;53.28;100224.22;4336510;32;34030;-78
2022/09/23 09:31:50;;;;;;;7.62;5.40;;;;;;;15.74;53.91;100214.66;4337130;33;34165;-77
2022/09/23 09:34:27;;;;;;;8.68;5.65;;;;;;;16.33;53.62;100213.28;4359522;32;34500;-78
2022/09/23 09:37:06;;;;;;;9.18;5.55;;;;;;;16.36;53.12;100212.69;4342266;33;33598;-80
2022/09/23 09:39:35;;;;;;;9.73;6.55;;;;;;;16.74;50.51;100207.72;4352690;32;34916;-82
2022/09/23 09:42:06;;;;;;;6.95;5.47;;;;;;;16.67;51.17;100212.63;4346863;32;34948;-81
2022/09/23 09:45:01;;;;;;;7.90;6.12;;;;;;;16.58;51.15;100211.56;4340425;32;35511;-72
2022/09/23 09:47:32;;;;;;;7.87;5.78;;;;;;;16.86;50.85;100207.41;4353908;32;33315;-74
2022/09/23 09:50:09;;;;;;;8.18;5.15;;;;;;;16.53;51.93;100200.63;4360170;32;33729;-76
2022/09/23 09:52:37;;;;;;;8.35;5.65;;;;;;;16.36;52.49;100201.75;4348599;32;34254;-72
2022/09/23 09:55:12;;;;;;;8.02;6.05;;;;;;;16.58;52.19;100195.94;4347534;33;34293;-79
2022/09/23 09:57:54;;;;;;;9.00;5.93;;;;;;;16.68;50.66;100195.12;4340171;33;33790;-79
2022/09/23 10:00:25;;;;;;;8.00;5.68;;;;;;;16.55;50.38;100193.78;4346620;32;34135;-79
2022/09/23 10:03:25;;;;;;;9.55;6.18;;;;;;;16.47;52.07;100190.78;4353190;32;34771;-79
2022/09/23 10:05:56;;;;;;;7.15;5.50;;;;;;;16.90;50.70;100186.56;4337726;33;34160;-79
2022/09/23 10:08:27;;;;;;;11.55;5.85;;;;;;;16.90;51.44;100192.06;4338916;32;33516;-82
2022/09/23 10:10:57;;;;;;;7.70;5.60;;;;;;;16.97;50.00;100180.78;4343578;33;33905;-75
2022/09/23 10:13:28;;;;;;;7.85;5.47;;;;;;;16.97;49.84;100192.56;4346015;33;34296;-80
2022/09/23 10:16:02;;;;;;;9.18;5.20;;;;;;;16.55;49.45;100188.31;4348181;33;34894;-75
2022/09/23 10:18:37;;;;;;;8.50;5.40;;;;;;;17.01;47.89;100179.94;4346780;33;34608;-73
2022/09/23 10:21:15;;;;;;;8.38;5.12;;;;;;;16.97;48.29;100181.59;4335157;33;34617;-73
2022/09/23 10:23:54;;;;;;;7.87;5.40;;;;;;;17.20;48.25;100182.06;4339469;33;33850;-77
2022/09/23 10:26:53;;;;;;;7.43;4.97;;;;;;;17.21;48.16;100184.53;4331204;33;33994;-76
2022/09/23 10:29:47;;;;;;;8.18;4.97;;;;;;;17.54;47.63;100179.37;4330251;33;33126;-79
2022/09/23 10:32:35;;;;;;;6.78;4.78;;;;;;;17.46;46.93;100187.41;4332998;33;33978;-74
2022/09/23 10:35:06;;;;;;;7.80;5.15;;;;;;;17.43;47.16;100183.31;4333482;33;34980;-79
2022/09/23 10:37:39;;;;;;;7.28;5.60;;;;;;;16.71;50.46;100186.31;4346529;33;33891;-76
2022/09/23 10:49:26;;;;;;;6.40;4.03;;;;;;;17.30;48.14;100168.28;4340306;33;33934;-79
2022/09/23 10:52:10;;;;;;;4.85;3.67;;;;;;;16.55;47.56;100174.59;4341595;33;34585;-73
2022/09/23 10:54:48;;;;;;;6.43;4.37;;;;;;;17.21;46.90;100170.81;4333513;33;34891;-80
2022/09/23 10:57:39;;;;;;;5.22;3.70;;;;;;;16.24;47.99;100178.50;4334435;33;35013;-73
2022/09/23 11:00:50;;;;;;;6.03;4.00;;;;;;;16.88;48.11;100177.81;4333069;33;34197;-77
2022/09/23 11:03:49;;;;;;;5.45;4.05;;;;;;;16.73;47.74;100166.88;4316667;33;33810;-78
2022/09/23 11:06:35;;;;;;;5.80;3.78;;;;;;;17.13;46.18;100168.66;4339057;33;34638;-71
2022/09/23 11:09:16;;;;;;;7.03;4.60;;;;;;;17.99;47.00;100171.94;4342261;33;34059;-74
2022/09/23 11:12:11;;;;;;;6.20;4.65;;;;;;;18.18;45.99;100160.22;4342475;33;35062;-82
2022/09/23 11:14:54;;;;;;;6.20;4.30;;;;;;;17.65;48.43;100155.44;4347123;33;33874;-79
2022/09/23 11:17:42;;;;;;;6.37;4.10;;;;;;;17.82;48.59;100157.81;4342667;33;34069;-71
2022/09/23 11:20:36;;;;;;;5.75;3.80;;;;;;;17.88;45.76;100164.06;4333078;33;34254;-73
2022/09/23 11:23:21;;;;;;;7.45;4.30;;;;;;;18.55;45.54;100159.59;4325839;32;35005;-75
2022/09/23 11:25:55;;;;;;;5.68;3.90;;;;;;;18.04;46.34;100149.09;4349690;32;33952;-74
2022/09/23 11:28:52;;;;;;;6.00;4.10;;;;;;;17.52;48.34;100150.59;4362470;32;34141;-77
2022/09/23 11:31:42;;;;;;;7.30;4.15;;;;;;;17.85;49.30;100145.44;4357526;32;34219;-72
2022/09/23 11:34:49;;;;;;;5.80;3.90;;;;;;;17.41;48.31;100145.19;4352937;32;34162;-73
2022/09/23 11:37:28;;;;;;;6.20;3.85;;;;;;;17.79;48.50;100142.69;4361735;32;34473;-76
2022/09/23 11:40:00;;;;;;;;;;;;;;;17.32;48.64;100138.66;4346644;33;33983;-73
2022/09/23 11:42:32;;;;;;;6.72;4.62;;;;;;;16.49;48.74;100131.87;4340971;33;34319;-71
2022/09/23 11:45:13;;;;;;;6.97;4.78;;;;;;;16.22;51.07;100131.41;4345447;32;34000;-74
2022/09/23 11:47:47;;;;;;;7.57;4.70;;;;;;;16.36;49.41;100129.75;4358916;32;34581;-76
2022/09/23 11:50:25;;;;;;;7.85;4.50;;;;;;;16.99;47.74;100130.06;4353002;32;34716;-75
2022/09/23 11:53:02;;;;;;;6.85;4.87;;;;;;;17.55;47.68;100122.59;4365099;32;34300;-74
2022/09/23 11:55:33;;;;;;;6.72;4.80;;;;;;;17.42;46.31;100122.13;4347692;32;34992;-75
2022/09/23 11:58:07;;;;;;;6.53;5.12;;;;;;;17.55;46.64;100119.84;4369207;32;32237;-76
2022/09/23 12:01:06;;;;;;;7.45;4.53;;;;;;;16.92;47.14;100120.53;4346295;32;33946;-74
2022/09/23 12:03:57;;;;;;;5.95;4.43;;;;;;;17.46;46.89;100125.13;4347392;32;34185;-76
2022/09/23 12:06:42;;;;;;;9.43;6.35;;;;;;;17.75;45.98;100116.94;4349042;32;34264;-77